sim
Sign-in with your pilot id or email,
or register
Callsign
Passwort

Schedule Details

Flight Number: OEO3043
Departure: Bremen Airport (EDDW) at 15:05
Arrival: Munich Airport (EDDM) at 16:30

Weather Information
Getting current METAR information for EDDW 181320Z 08011KT 050V120 CAVOK 19/05 Q1027 NOSIG
Getting current METAR information for EDDM 181320Z 08011KT CAVOK 19/10 Q1024 NOSIG

Schedule Frequency

Route Map